sensor_id;sensor_type;location;lat;lon;timestamp;temperature;humidity
30379;DHT22;17168;49.164;9.060;2023-01-29T10:57:51;3.10;93.40
30379;DHT22;17168;49.164;9.060;2023-01-29T11:00:28;3.20;86.70
30379;DHT22;17168;49.164;9.060;2023-01-29T11:03:14;3.30;80.30
30379;DHT22;17168;49.164;9.060;2023-01-29T11:06:03;3.40;80.80
30379;DHT22;17168;49.164;9.060;2023-01-29T11:08:42;3.40;80.90
30379;DHT22;17168;49.164;9.060;2023-01-29T11:11:16;3.50;81.10
30379;DHT22;17168;49.164;9.060;2023-01-29T11:13:53;3.40;81.00
30379;DHT22;17168;49.164;9.060;2023-01-29T11:16:29;3.40;80.70
30379;DHT22;17168;49.164;9.060;2023-01-29T11:19:03;3.40;80.80
30379;DHT22;17168;49.164;9.060;2023-01-29T11:21:50;3.40;80.90
30379;DHT22;17168;49.164;9.060;2023-01-29T11:24:23;3.40;80.90
30379;DHT22;17168;49.164;9.060;2023-01-29T11:26:57;3.40;80.80
30379;DHT22;17168;49.164;9.060;2023-01-29T11:29:33;3.30;80.50
30379;DHT22;17168;49.164;9.060;2023-01-29T11:32:12;3.30;80.70
30379;DHT22;17168;49.164;9.060;2023-01-29T11:35:02;3.30;80.80
30379;DHT22;17168;49.164;9.060;2023-01-29T11:37:36;3.40;80.80
30379;DHT22;17168;49.164;9.060;2023-01-29T11:40:36;3.40;81.00
30379;DHT22;17168;49.164;9.060;2023-01-29T11:43:19;3.50;81.10
30379;DHT22;17168;49.164;9.060;2023-01-29T11:45:53;3.50;80.70
30379;DHT22;17168;49.164;9.060;2023-01-29T11:48:31;3.50;80.60
30379;DHT22;17168;49.164;9.060;2023-01-29T11:51:07;3.50;80.40
30379;DHT22;17168;49.164;9.060;2023-01-29T11:53:42;3.40;80.20
30379;DHT22;17168;49.164;9.060;2023-01-29T11:56:19;3.30;80.10
30379;DHT22;17168;49.164;9.060;2023-01-29T11:58:53;3.30;80.10
30379;DHT22;17168;49.164;9.060;2023-01-29T12:01:31;3.30;80.10
30379;DHT22;17168;49.164;9.060;2023-01-29T12:04:16;3.30;80.30
30379;DHT22;17168;49.164;9.060;2023-01-29T12:06:52;3.40;80.50
30379;DHT22;17168;49.164;9.060;2023-01-29T12:09:25;3.40;80.50
30379;DHT22;17168;49.164;9.060;2023-01-29T12:12:16;3.50;80.50
30379;DHT22;17168;49.164;9.060;2023-01-29T12:15:02;3.60;80.60
30379;DHT22;17168;49.164;9.060;2023-01-29T12:17:37;3.70;80.70
30379;DHT22;17168;49.164;9.060;2023-01-29T12:20:12;3.70;80.60
30379;DHT22;17168;49.164;9.060;2023-01-29T12:22:52;3.70;80.40
30379;DHT22;17168;49.164;9.060;2023-01-29T12:25:37;3.70;80.10
30379;DHT22;17168;49.164;9.060;2023-01-29T12:28:24;3.70;80.10
30379;DHT22;17168;49.164;9.060;2023-01-29T12:31:16;3.70;80.30
30379;DHT22;17168;49.164;9.060;2023-01-29T12:33:52;3.80;80.40
30379;DHT22;17168;49.164;9.060;2023-01-29T12:36:30;3.80;80.30
30379;DHT22;17168;49.164;9.060;2023-01-29T12:39:07;3.80;80.00
30379;DHT22;17168;49.164;9.060;2023-01-29T12:41:44;3.80;79.70
30379;DHT22;17168;49.164;9.060;2023-01-29T12:44:19;4.00;80.10
30379;DHT22;17168;49.164;9.060;2023-01-29T12:46:55;4.20;80.60
30379;DHT22;17168;49.164;9.060;2023-01-29T12:49:32;4.40;80.50
30379;DHT22;17168;49.164;9.060;2023-01-29T12:52:09;4.70;80.40
30379;DHT22;17168;49.164;9.060;2023-01-29T12:54:50;5.10;80.70
30379;DHT22;17168;49.164;9.060;2023-01-29T12:57:33;5.40;80.60
30379;DHT22;17168;49.164;9.060;2023-01-29T13:00:12;5.70;80.00
30379;DHT22;17168;49.164;9.060;2023-01-29T13:02:48;5.90;79.30
30379;DHT22;17168;49.164;9.060;2023-01-29T13:05:25;6.10;78.50
30379;DHT22;17168;49.164;9.060;2023-01-29T13:08:03;6.20;78.00
30379;DHT22;17168;49.164;9.060;2023-01-29T13:10:43;6.30;78.40
30379;DHT22;17168;49.164;9.060;2023-01-29T13:13:23;6.60;77.90
30379;DHT22;17168;49.164;9.060;2023-01-29T13:15:57;6.60;77.40
30379;DHT22;17168;49.164;9.060;2023-01-29T13:18:41;6.70;77.60
30379;DHT22;17168;49.164;9.060;2023-01-29T13:21:17;6.60;77.00
30379;DHT22;17168;49.164;9.060;2023-01-29T13:23:51;6.50;76.50
30379;DHT22;17168;49.164;9.060;2023-01-29T13:26:27;6.40;76.50
30379;DHT22;17168;49.164;9.060;2023-01-29T13:28:59;6.50;76.80
30379;DHT22;17168;49.164;9.060;2023-01-29T13:31:33;6.60;76.80
30379;DHT22;17168;49.164;9.060;2023-01-29T13:34:11;6.70;76.80
30379;DHT22;17168;49.164;9.060;2023-01-29T13:36:45;6.70;76.10
30379;DHT22;17168;49.164;9.060;2023-01-29T13:39:22;6.80;76.50
30379;DHT22;17168;49.164;9.060;2023-01-29T13:41:59;7.00;75.20
30379;DHT22;17168;49.164;9.060;2023-01-29T13:44:34;7.10;75.10
30379;DHT22;17168;49.164;9.060;2023-01-29T13:47:09;7.30;75.40
30379;DHT22;17168;49.164;9.060;2023-01-29T13:49:44;7.60;74.90
30379;DHT22;17168;49.164;9.060;2023-01-29T13:52:30;7.60;74.00
30379;DHT22;17168;49.164;9.060;2023-01-29T13:55:19;7.30;72.90
30379;DHT22;17168;49.164;9.060;2023-01-29T13:57:56;7.00;72.50
30379;DHT22;17168;49.164;9.060;2023-01-29T14:00:49;6.70;72.60
30379;DHT22;17168;49.164;9.060;2023-01-29T14:03:39;6.30;72.40
30379;DHT22;17168;49.164;9.060;2023-01-29T14:06:49;6.20;72.60
30379;DHT22;17168;49.164;9.060;2023-01-29T14:12:32;6.30;73.30
30379;DHT22;17168;49.164;9.060;2023-01-29T14:15:31;6.10;72.80
30379;DHT22;17168;49.164;9.060;2023-01-29T14:18:05;6.00;72.80
30379;DHT22;17168;49.164;9.060;2023-01-29T14:20:55;5.70;72.60
30379;DHT22;17168;49.164;9.060;2023-01-29T14:23:39;5.50;72.60
30379;DHT22;17168;49.164;9.060;2023-01-29T14:26:21;5.40;72.90
30379;DHT22;17168;49.164;9.060;2023-01-29T14:29:06;5.30;73.30
30379;DHT22;17168;49.164;9.060;2023-01-29T14:31:58;5.40;73.30
30379;DHT22;17168;49.164;9.060;2023-01-29T14:34:33;5.40;73.40
30379;DHT22;17168;49.164;9.060;2023-01-29T14:37:19;5.40;73.50
30379;DHT22;17168;49.164;9.060;2023-01-29T14:39:55;5.40;73.60
30379;DHT22;17168;49.164;9.060;2023-01-29T14:42:34;5.40;73.40
30379;DHT22;17168;49.164;9.060;2023-01-29T14:45:19;5.30;73.40
30379;DHT22;17168;49.164;9.060;2023-01-29T14:48:00;5.10;73.30
30379;DHT22;17168;49.164;9.060;2023-01-29T14:50:51;5.10;73.50
30379;DHT22;17168;49.164;9.060;2023-01-29T14:53:31;5.10;73.70
30379;DHT22;17168;49.164;9.060;2023-01-29T14:56:11;5.10;73.90
30379;DHT22;17168;49.164;9.060;2023-01-29T14:58:47;5.00;74.00
30379;DHT22;17168;49.164;9.060;2023-01-29T15:01:22;5.00;74.00
30379;DHT22;17168;49.164;9.060;2023-01-29T15:04:02;5.00;74.00
30379;DHT22;17168;49.164;9.060;2023-01-29T15:06:40;5.00;74.00
30379;DHT22;17168;49.164;9.060;2023-01-29T15:09:16;5.00;74.10
30379;DHT22;17168;49.164;9.060;2023-01-29T15:11:53;4.90;74.20
30379;DHT22;17168;49.164;9.060;2023-01-29T15:14:31;5.00;74.40
30379;DHT22;17168;49.164;9.060;2023-01-29T15:17:14;5.00;74.40
30379;DHT22;17168;49.164;9.060;2023-01-29T15:19:51;4.90;74.30
30379;DHT22;17168;49.164;9.060;2023-01-29T15:22:24;4.90;74.40
30379;DHT22;17168;49.164;9.060;2023-01-29T15:25:06;4.90;74.50
30379;DHT22;17168;49.164;9.060;2023-01-29T15:27:41;4.80;74.40
30379;DHT22;17168;49.164;9.060;2023-01-29T15:30:17;4.80;74.40
30379;DHT22;17168;49.164;9.060;2023-01-29T15:32:49;4.70;74.50
30379;DHT22;17168;49.164;9.060;2023-01-29T15:35:30;4.60;74.40
30379;DHT22;17168;49.164;9.060;2023-01-29T15:38:11;4.60;74.50
30379;DHT22;17168;49.164;9.060;2023-01-29T15:40:52;4.60;74.70
30379;DHT22;17168;49.164;9.060;2023-01-29T15:43:25;4.50;74.70
30379;DHT22;17168;49.164;9.060;2023-01-29T15:46:00;4.50;74.70
30379;DHT22;17168;49.164;9.060;2023-01-29T15:48:36;4.40;74.80
30379;DHT22;17168;49.164;9.060;2023-01-29T15:51:15;4.40;74.80
30379;DHT22;17168;49.164;9.060;2023-01-29T15:53:50;4.40;74.90
30379;DHT22;17168;49.164;9.060;2023-01-29T15:56:27;4.30;74.90
30379;DHT22;17168;49.164;9.060;2023-01-29T15:59:03;4.30;74.90
30379;DHT22;17168;49.164;9.060;2023-01-29T16:01:40;4.30;75.00
30379;DHT22;17168;49.164;9.060;2023-01-29T16:04:16;4.20;75.00
30379;DHT22;17168;49.164;9.060;2023-01-29T16:06:54;4.20;75.00
30379;DHT22;17168;49.164;9.060;2023-01-29T16:09:27;4.20;75.00
30379;DHT22;17168;49.164;9.060;2023-01-29T16:12:00;4.10;75.00
30379;DHT22;17168;49.164;9.060;2023-01-29T16:14:33;4.10;75.00
30379;DHT22;17168;49.164;9.060;2023-01-29T16:17:22;4.10;75.00
30379;DHT22;17168;49.164;9.060;2023-01-29T16:19:55;4.10;75.00
30379;DHT22;17168;49.164;9.060;2023-01-29T16:22:33;4.10;75.00
30379;DHT22;17168;49.164;9.060;2023-01-29T16:25:10;4.00;74.90
30379;DHT22;17168;49.164;9.060;2023-01-29T16:27:43;4.00;75.00
30379;DHT22;17168;49.164;9.060;2023-01-29T16:30:16;4.00;74.90
30379;DHT22;17168;49.164;9.060;2023-01-29T16:32:49;4.00;74.90
30379;DHT22;17168;49.164;9.060;2023-01-29T16:35:21;4.00;74.90
30379;DHT22;17168;49.164;9.060;2023-01-29T16:37:59;3.90;74.80
30379;DHT22;17168;49.164;9.060;2023-01-29T16:40:35;3.80;74.90
30379;DHT22;17168;49.164;9.060;2023-01-29T16:46:25;3.60;75.10
30379;DHT22;17168;49.164;9.060;2023-01-29T16:48:58;3.50;75.20
30379;DHT22;17168;49.164;9.060;2023-01-29T16:51:36;3.40;75.30
30379;DHT22;17168;49.164;9.060;2023-01-29T16:54:12;3.30;75.40
30379;DHT22;17168;49.164;9.060;2023-01-29T16:56:50;3.20;75.40
30379;DHT22;17168;49.164;9.060;2023-01-29T16:59:30;3.20;75.50
30379;DHT22;17168;49.164;9.060;2023-01-29T17:02:03;3.10;75.60
30379;DHT22;17168;49.164;9.060;2023-01-29T17:04:42;3.00;75.50
30379;DHT22;17168;49.164;9.060;2023-01-29T17:07:17;3.00;75.40
30379;DHT22;17168;49.164;9.060;2023-01-29T17:09:57;3.00;75.30
30379;DHT22;17168;49.164;9.060;2023-01-29T17:12:31;3.00;75.80
30379;DHT22;17168;49.164;9.060;2023-01-29T17:15:31;3.20;77.60
30379;DHT22;17168;49.164;9.060;2023-01-29T17:18:16;3.40;78.90
30379;DHT22;17168;49.164;9.060;2023-01-29T17:20:49;3.80;79.50
30379;DHT22;17168;49.164;9.060;2023-01-29T17:23:22;4.00;79.60
30379;DHT22;17168;49.164;9.060;2023-01-29T17:25:56;4.20;79.50
30379;DHT22;17168;49.164;9.060;2023-01-29T17:28:30;4.50;79.30
30379;DHT22;17168;49.164;9.060;2023-01-29T17:31:02;4.60;79.20
30379;DHT22;17168;49.164;9.060;2023-01-29T17:33:40;4.80;79.00
30379;DHT22;17168;49.164;9.060;2023-01-29T17:36:15;5.00;78.80
30379;DHT22;17168;49.164;9.060;2023-01-29T17:38:47;5.10;78.50
30379;DHT22;17168;49.164;9.060;2023-01-29T17:41:24;5.30;78.10
30379;DHT22;17168;49.164;9.060;2023-01-29T17:43:57;5.40;77.60
30379;DHT22;17168;49.164;9.060;2023-01-29T17:46:30;5.50;77.30
30379;DHT22;17168;49.164;9.060;2023-01-29T17:49:01;5.60;77.00
30379;DHT22;17168;49.164;9.060;2023-01-29T17:51:35;5.60;76.80
30379;DHT22;17168;49.164;9.060;2023-01-29T17:54:07;5.70;76.80
30379;DHT22;17168;49.164;9.060;2023-01-29T17:56:42;5.70;76.60
30379;DHT22;17168;49.164;9.060;2023-01-29T17:59:15;5.80;76.30
30379;DHT22;17168;49.164;9.060;2023-01-29T18:01:47;5.90;75.90
30379;DHT22;17168;49.164;9.060;2023-01-29T18:04:19;6.00;75.60
30379;DHT22;17168;49.164;9.060;2023-01-29T18:06:52;6.00;75.70
30379;DHT22;17168;49.164;9.060;2023-01-29T18:09:25;6.00;74.90
30379;DHT22;17168;49.164;9.060;2023-01-29T18:12:01;6.00;74.70
30379;DHT22;17168;49.164;9.060;2023-01-29T18:14:33;6.00;74.40
30379;DHT22;17168;49.164;9.060;2023-01-29T18:17:05;6.00;74.80
30379;DHT22;17168;49.164;9.060;2023-01-29T18:19:37;5.90;74.40
30379;DHT22;17168;49.164;9.060;2023-01-29T18:22:09;5.90;74.60
30379;DHT22;17168;49.164;9.060;2023-01-29T18:24:41;5.80;74.60
30379;DHT22;17168;49.164;9.060;2023-01-29T18:27:15;5.80;74.70
30379;DHT22;17168;49.164;9.060;2023-01-29T18:29:47;5.80;74.60
30379;DHT22;17168;49.164;9.060;2023-01-29T18:32:21;5.70;74.70
30379;DHT22;17168;49.164;9.060;2023-01-29T18:34:52;5.70;74.70
30379;DHT22;17168;49.164;9.060;2023-01-29T18:37:25;5.70;74.70
30379;DHT22;17168;49.164;9.060;2023-01-29T18:39:58;5.70;74.80
30379;DHT22;17168;49.164;9.060;2023-01-29T18:42:32;5.70;74.70
30379;DHT22;17168;49.164;9.060;2023-01-29T18:45:07;5.70;74.70
30379;DHT22;17168;49.164;9.060;2023-01-29T18:47:39;5.70;74.60
30379;DHT22;17168;49.164;9.060;2023-01-29T18:50:11;5.70;74.60
30379;DHT22;17168;49.164;9.060;2023-01-29T18:52:43;5.70;74.50
30379;DHT22;17168;49.164;9.060;2023-01-29T18:55:16;5.70;74.40
30379;DHT22;17168;49.164;9.060;2023-01-29T18:57:54;5.80;74.40
30379;DHT22;17168;49.164;9.060;2023-01-29T19:00:46;5.90;74.20
30379;DHT22;17168;49.164;9.060;2023-01-29T19:03:18;5.90;74.10
30379;DHT22;17168;49.164;9.060;2023-01-29T19:05:50;6.00;74.00
30379;DHT22;17168;49.164;9.060;2023-01-29T19:08:22;6.00;73.90
30379;DHT22;17168;49.164;9.060;2023-01-29T19:10:54;6.00;73.70
30379;DHT22;17168;49.164;9.060;2023-01-29T19:13:29;6.00;73.60
30379;DHT22;17168;49.164;9.060;2023-01-29T19:16:05;6.00;73.40
30379;DHT22;17168;49.164;9.060;2023-01-29T19:18:37;6.00;73.30
30379;DHT22;17168;49.164;9.060;2023-01-29T19:21:10;5.90;73.20
30379;DHT22;17168;49.164;9.060;2023-01-29T19:23:43;5.90;73.30
30379;DHT22;17168;49.164;9.060;2023-01-29T19:26:15;5.90;73.30
30379;DHT22;17168;49.164;9.060;2023-01-29T19:28:50;5.80;73.20
30379;DHT22;17168;49.164;9.060;2023-01-29T19:31:22;5.70;73.20
30379;DHT22;17168;49.164;9.060;2023-01-29T19:33:54;5.70;73.20
30379;DHT22;17168;49.164;9.060;2023-01-29T19:36:26;5.60;73.20
30379;DHT22;17168;49.164;9.060;2023-01-29T19:38:58;5.60;73.30
30379;DHT22;17168;49.164;9.060;2023-01-29T19:41:30;5.50;73.20
30379;DHT22;17168;49.164;9.060;2023-01-29T19:44:05;5.60;73.30
30379;DHT22;17168;49.164;9.060;2023-01-29T19:46:38;5.60;73.10
30379;DHT22;17168;49.164;9.060;2023-01-29T19:49:10;5.60;72.90
30379;DHT22;17168;49.164;9.060;2023-01-29T19:51:42;5.70;72.70
30379;DHT22;17168;49.164;9.060;2023-01-29T19:54:15;5.70;72.30
30379;DHT22;17168;49.164;9.060;2023-01-29T19:56:47;5.80;72.00
30379;DHT22;17168;49.164;9.060;2023-01-29T19:59:21;5.80;71.80
30379;DHT22;17168;49.164;9.060;2023-01-29T20:01:53;5.80;71.80
30379;DHT22;17168;49.164;9.060;2023-01-29T20:04:26;5.90;71.60
30379;DHT22;17168;49.164;9.060;2023-01-29T20:06:58;5.90;71.50
30379;DHT22;17168;49.164;9.060;2023-01-29T20:09:30;5.80;71.50
30379;DHT22;17168;49.164;9.060;2023-01-29T20:12:03;5.60;71.50
30379;DHT22;17168;49.164;9.060;2023-01-29T20:14:37;5.40;71.00
30379;DHT22;17168;49.164;9.060;2023-01-29T20:17:09;5.10;70.60
30379;DHT22;17168;49.164;9.060;2023-01-29T20:19:41;4.70;71.10
30379;DHT22;17168;49.164;9.060;2023-01-29T20:22:14;4.40;70.80
30379;DHT22;17168;49.164;9.060;2023-01-29T20:24:46;4.00;71.10
30379;DHT22;17168;49.164;9.060;2023-01-29T20:27:18;3.70;71.40
30379;DHT22;17168;49.164;9.060;2023-01-29T20:29:52;3.50;71.80
30379;DHT22;17168;49.164;9.060;2023-01-29T20:32:24;3.20;72.00
30379;DHT22;17168;49.164;9.060;2023-01-29T20:34:56;3.00;72.40
30379;DHT22;17168;49.164;9.060;2023-01-29T20:37:28;2.80;72.90
30379;DHT22;17168;49.164;9.060;2023-01-29T20:40:00;2.70;73.20
30379;DHT22;17168;49.164;9.060;2023-01-29T20:42:32;2.60;73.50
30379;DHT22;17168;49.164;9.060;2023-01-29T20:45:07;2.40;74.20
30379;DHT22;17168;49.164;9.060;2023-01-29T20:47:40;2.30;73.90
30379;DHT22;17168;49.164;9.060;2023-01-29T20:50:14;2.20;74.10
30379;DHT22;17168;49.164;9.060;2023-01-29T20:52:47;2.20;74.30
30379;DHT22;17168;49.164;9.060;2023-01-29T20:55:20;2.10;74.50
30379;DHT22;17168;49.164;9.060;2023-01-29T20:57:52;2.00;74.60
30379;DHT22;17168;49.164;9.060;2023-01-29T21:00:39;2.00;74.90
30379;DHT22;17168;49.164;9.060;2023-01-29T21:03:12;1.90;75.20
30379;DHT22;17168;49.164;9.060;2023-01-29T21:05:44;1.90;75.50
30379;DHT22;17168;49.164;9.060;2023-01-29T21:08:16;1.80;75.80
30379;DHT22;17168;49.164;9.060;2023-01-29T21:10:48;1.80;76.20
30379;DHT22;17168;49.164;9.060;2023-01-29T21:13:20;1.70;76.40
30379;DHT22;17168;49.164;9.060;2023-01-29T21:15:55;1.70;76.70
30379;DHT22;17168;49.164;9.060;2023-01-29T21:18:27;1.60;77.30
30379;DHT22;17168;49.164;9.060;2023-01-29T21:20:59;1.60;77.80
30379;DHT22;17168;49.164;9.060;2023-01-29T21:23:31;1.60;78.10
30379;DHT22;17168;49.164;9.060;2023-01-29T21:26:05;1.50;78.40
30379;DHT22;17168;49.164;9.060;2023-01-29T21:28:37;1.50;78.70
30379;DHT22;17168;49.164;9.060;2023-01-29T21:31:12;1.50;79.10
30379;DHT22;17168;49.164;9.060;2023-01-29T21:33:48;1.40;79.30
30379;DHT22;17168;49.164;9.060;2023-01-29T21:36:20;1.40;79.40
30379;DHT22;17168;49.164;9.060;2023-01-29T21:38:52;1.40;79.80
30379;DHT22;17168;49.164;9.060;2023-01-29T21:41:24;1.40;79.90
30379;DHT22;17168;49.164;9.060;2023-01-29T21:44:14;1.40;79.90
30379;DHT22;17168;49.164;9.060;2023-01-29T21:46:49;1.40;80.00
30379;DHT22;17168;49.164;9.060;2023-01-29T21:49:21;1.40;80.00
30379;DHT22;17168;49.164;9.060;2023-01-29T21:51:53;1.40;79.90
30379;DHT22;17168;49.164;9.060;2023-01-29T21:54:25;1.40;79.90
30379;DHT22;17168;49.164;9.060;2023-01-29T21:57:02;1.40;79.80
30379;DHT22;17168;49.164;9.060;2023-01-29T21:59:37;1.40;80.40
30379;DHT22;17168;49.164;9.060;2023-01-29T22:02:14;1.40;80.20
30379;DHT22;17168;49.164;9.060;2023-01-29T22:04:46;1.40;80.80
30379;DHT22;17168;49.164;9.060;2023-01-29T22:07:18;1.60;83.50
30379;DHT22;17168;49.164;9.060;2023-01-29T22:09:51;1.80;85.70
30379;DHT22;17168;49.164;9.060;2023-01-29T22:12:23;2.10;87.00
30379;DHT22;17168;49.164;9.060;2023-01-29T22:14:55;2.40;87.30
30379;DHT22;17168;49.164;9.060;2023-01-29T22:17:29;2.70;87.00
30379;DHT22;17168;49.164;9.060;2023-01-29T22:20:02;2.90;86.40
30379;DHT22;17168;49.164;9.060;2023-01-29T22:22:38;3.10;85.70
30379;DHT22;17168;49.164;9.060;2023-01-29T22:25:12;3.40;84.90
30379;DHT22;17168;49.164;9.060;2023-01-29T22:27:44;3.50;84.70
30379;DHT22;17168;49.164;9.060;2023-01-29T22:30:16;3.70;83.50
30379;DHT22;17168;49.164;9.060;2023-01-29T22:32:51;3.80;82.80
30379;DHT22;17168;49.164;9.060;2023-01-29T22:35:25;3.90;82.20
30379;DHT22;17168;49.164;9.060;2023-01-29T22:37:58;4.00;81.70
30379;DHT22;17168;49.164;9.060;2023-01-29T22:40:33;4.00;81.00
30379;DHT22;17168;49.164;9.060;2023-01-29T22:43:05;4.00;80.70
30379;DHT22;17168;49.164;9.060;2023-01-29T22:45:39;4.00;80.30
30379;DHT22;17168;49.164;9.060;2023-01-29T22:48:14;4.00;79.80
30379;DHT22;17168;49.164;9.060;2023-01-29T22:50:47;4.00;79.60
30379;DHT22;17168;49.164;9.060;2023-01-29T22:53:29;4.10;79.40
30379;DHT22;17168;49.164;9.060;2023-01-29T22:56:01;4.10;79.10
30379;DHT22;17168;49.164;9.060;2023-01-29T22:58:33;4.00;78.80
30379;DHT22;17168;49.164;9.060;2023-01-29T23:01:06;4.10;78.90
30379;DHT22;17168;49.164;9.060;2023-01-29T23:03:41;4.10;78.70
30379;DHT22;17168;49.164;9.060;2023-01-29T23:06:16;4.10;78.60
30379;DHT22;17168;49.164;9.060;2023-01-29T23:08:59;4.10;78.40
30379;DHT22;17168;49.164;9.060;2023-01-29T23:11:31;4.20;78.20
30379;DHT22;17168;49.164;9.060;2023-01-29T23:14:03;4.20;78.10
30379;DHT22;17168;49.164;9.060;2023-01-29T23:16:35;4.10;78.00
30379;DHT22;17168;49.164;9.060;2023-01-29T23:19:10;4.20;77.90
30379;DHT22;17168;49.164;9.060;2023-01-29T23:21:42;4.10;77.90
30379;DHT22;17168;49.164;9.060;2023-01-29T23:24:15;4.10;77.80
30379;DHT22;17168;49.164;9.060;2023-01-29T23:26:47;4.10;77.10
30379;DHT22;17168;49.164;9.060;2023-01-29T23:29:38;3.80;76.30
30379;DHT22;17168;49.164;9.060;2023-01-29T23:32:12;3.50;76.10
30379;DHT22;17168;49.164;9.060;2023-01-29T23:34:48;3.30;76.00
30379;DHT22;17168;49.164;9.060;2023-01-29T23:37:22;3.10;76.20
30379;DHT22;17168;49.164;9.060;2023-01-29T23:39:58;2.80;76.70
30379;DHT22;17168;49.164;9.060;2023-01-29T23:42:29;2.60;77.20
30379;DHT22;17168;49.164;9.060;2023-01-29T23:45:02;2.40;77.80
30379;DHT22;17168;49.164;9.060;2023-01-29T23:47:34;2.20;78.20
30379;DHT22;17168;49.164;9.060;2023-01-29T23:50:09;2.10;78.60
30379;DHT22;17168;49.164;9.060;2023-01-29T23:52:41;2.00;79.20
30379;DHT22;17168;49.164;9.060;2023-01-29T23:55:15;1.90;80.00
30379;DHT22;17168;49.164;9.060;2023-01-29T23:57:48;1.80;80.10
